Time;durP1;ratioP1;P1;durP2;ratioP2;P2;SDS_P1;SDS_P2;PMS_P1;PMS_P2;Temp;Humidity;BMP_temperature;BMP_pressure;BME280_temperature;BME280_humidity;BME280_pressure;Samples;Min_cycle;Max_cycle;Signal;HPM_P1;HPM_P2
2022/11/16 00:01:05;;;;;;;6.75;4.20;;;13.70;99.90;;;;;;4085674;29;20163;-95
2022/11/16 00:03:06;;;;;;;9.85;4.40;;;13.60;99.90;;;;;;4084656;28;20219;-91
2022/11/16 00:05:20;;;;;;;5.90;4.03;;;13.70;99.90;;;;;;4085597;29;20194;-93
2022/11/16 00:07:41;;;;;;;10.18;4.68;;;13.70;99.90;;;;;;4085388;29;20507;-95
2022/11/16 00:09:46;;;;;;;9.02;4.35;;;13.70;99.90;;;;;;4085527;29;20182;-94
2022/11/16 00:11:55;;;;;;;8.95;4.38;;;13.70;99.90;;;;;;4085358;29;20719;-94
2022/11/16 00:14:15;;;;;;;8.80;4.30;;;13.80;99.90;;;;;;4085837;29;20199;-95
2022/11/16 00:16:19;;;;;;;9.32;4.15;;;13.90;99.90;;;;;;4085785;29;20278;-91
2022/11/16 00:18:22;;;;;;;12.63;4.22;;;14.00;99.90;;;;;;4085393;29;20661;-92
2022/11/16 00:20:23;;;;;;;10.13;3.80;;;14.00;99.90;;;;;;4085112;29;20258;-95
2022/11/16 00:22:26;;;;;;;8.65;3.47;;;14.00;99.90;;;;;;4085065;29;20180;-95
2022/11/16 00:24:27;;;;;;;8.15;3.53;;;13.90;99.90;;;;;;4085243;29;20187;-94
2022/11/16 00:26:28;;;;;;;7.00;3.28;;;13.90;99.90;;;;;;4100951;28;20175;-95
2022/11/16 00:28:29;;;;;;;6.38;3.10;;;13.80;99.90;;;;;;4069512;29;20248;-94
2022/11/16 00:30:32;;;;;;;5.90;3.22;;;13.80;99.90;;;;;;4100776;28;20556;-95
2022/11/16 00:32:33;;;;;;;7.28;3.40;;;13.80;99.90;;;;;;4100760;28;20214;-94
2022/11/16 00:34:36;;;;;;;6.25;3.17;;;13.90;99.90;;;;;;4085220;29;20168;-92
2022/11/16 00:36:36;;;;;;;8.30;3.40;;;13.90;99.90;;;;;;4085060;29;20182;-92
2022/11/16 00:38:46;;;;;;;5.25;3.10;;;13.90;99.90;;;;;;4101014;28;20198;-92
2022/11/16 00:40:52;;;;;;;8.82;3.33;;;14.00;99.90;;;;;;4069281;29;20204;-92
2022/11/16 00:42:56;;;;;;;5.30;2.58;;;13.80;99.90;;;;;;4100581;28;20233;-92
2022/11/16 00:45:15;;;;;;;5.80;3.35;;;13.60;99.90;;;;;;4085080;29;20184;-94
2022/11/16 00:47:18;;;;;;;7.93;3.28;;;13.50;99.90;;;;;;4084583;29;20292;-92
2022/11/16 00:49:19;;;;;;;10.77;2.53;;;13.50;99.90;;;;;;4084921;29;20172;-93
2022/11/16 00:51:20;;;;;;;5.68;2.45;;;13.60;99.90;;;;;;4069278;29;20267;-93
2022/11/16 00:53:21;;;;;;;6.00;2.47;;;13.60;99.90;;;;;;4085046;29;20231;-94
2022/11/16 00:55:22;;;;;;;4.18;1.63;;;13.60;99.90;;;;;;4085048;29;20203;-92
2022/11/16 00:57:23;;;;;;;4.57;2.20;;;13.50;99.90;;;;;;4085062;29;20593;-96
2022/11/16 00:59:24;;;;;;;5.90;2.03;;;13.40;99.90;;;;;;4085143;29;20184;-93
2022/11/16 01:01:28;;;;;;;4.03;1.60;;;13.50;99.90;;;;;;4084737;29;20178;-95
2022/11/16 01:03:29;;;;;;;7.53;2.00;;;13.50;99.90;;;;;;4084578;29;20687;-92
2022/11/16 01:05:30;;;;;;;9.90;1.80;;;13.30;99.90;;;;;;4084527;29;20164;-93
2022/11/16 01:07:31;;;;;;;3.95;1.73;;;13.20;99.90;;;;;;4084419;29;20215;-95
2022/11/16 01:09:31;;;;;;;4.90;1.60;;;13.30;99.90;;;;;;4068581;29;20250;-93
2022/11/16 01:13:55;;;;;;;7.75;1.58;;;13.30;99.90;;;;;;4084418;29;20191;-94
2022/11/16 01:15:55;;;;;;;4.60;1.58;;;13.30;99.90;;;;;;4084447;29;20184;-95
2022/11/16 01:17:56;;;;;;;4.47;1.60;;;13.20;99.90;;;;;;4084293;29;20194;-94
2022/11/16 01:19:57;;;;;;;2.95;1.58;;;13.20;99.90;;;;;;4084529;29;20167;-95
2022/11/16 01:21:59;;;;;;;6.22;1.73;;;13.30;99.90;;;;;;4084432;29;20183;-91
2022/11/16 01:24:00;;;;;;;7.30;1.70;;;13.20;99.90;;;;;;4084542;29;20202;-94
2022/11/16 01:26:01;;;;;;;6.07;1.52;;;13.20;99.90;;;;;;4084492;29;20171;-92
2022/11/16 01:28:03;;;;;;;5.18;1.80;;;13.10;99.90;;;;;;4084672;29;20212;-95
2022/11/16 01:30:16;;;;;;;7.05;1.80;;;13.10;99.90;;;;;;4100315;28;20183;-95
2022/11/16 01:32:27;;;;;;;8.02;1.88;;;13.00;99.90;;;;;;4084329;29;20267;-95
2022/11/16 01:34:28;;;;;;;8.00;1.73;;;13.10;99.90;;;;;;4084554;29;20703;-95
2022/11/16 01:36:41;;;;;;;5.78;1.75;;;13.20;99.90;;;;;;4099442;28;20179;-94
2022/11/16 01:38:44;;;;;;;4.75;1.35;;;13.20;99.90;;;;;;4084332;29;20270;-95
2022/11/16 01:40:46;;;;;;;6.32;1.48;;;13.20;99.90;;;;;;4084230;29;20234;-91
2022/11/16 01:42:47;;;;;;;4.95;1.52;;;13.30;99.90;;;;;;4099926;28;20179;-92
2022/11/16 01:44:51;;;;;;;7.80;1.63;;;13.10;99.90;;;;;;4084414;29;20176;-93
2022/11/16 01:46:52;;;;;;;5.43;1.52;;;12.90;99.90;;;;;;4084249;29;20227;-94
2022/11/16 01:49:12;;;;;;;7.20;1.70;;;12.90;99.90;;;;;;4084259;29;20195;-95
2022/11/16 01:51:14;;;;;;;8.25;1.88;;;12.90;99.90;;;;;;4084416;29;20664;-95
2022/11/16 01:53:15;;;;;;;11.45;2.20;;;12.80;99.90;;;;;;4084186;29;20298;-92
2022/11/16 01:55:26;;;;;;;4.47;2.03;;;12.90;99.90;;;;;;4069329;29;20222;-93
2022/11/16 01:57:46;;;;;;;8.52;1.88;;;12.90;99.90;;;;;;4084230;29;20689;-95
2022/11/16 01:59:52;;;;;;;5.63;1.88;;;12.90;99.90;;;;;;4084259;29;20656;-92
2022/11/16 02:01:59;;;;;;;7.72;1.80;;;12.90;99.90;;;;;;4099401;28;20257;-93
2022/11/16 02:04:02;;;;;;;3.38;1.70;;;12.90;99.90;;;;;;4084058;29;20608;-95
2022/11/16 02:06:26;;;;;;;5.43;1.80;;;12.80;99.90;;;;;;4068449;29;20183;-95
2022/11/16 02:11:43;;;;;;;7.80;1.83;;;12.90;99.90;;;;;;4083760;29;20215;-94
2022/11/16 02:14:08;;;;;;;7.85;1.73;;;12.90;99.90;;;;;;4083936;29;20288;-95
2022/11/16 02:16:12;;;;;;;9.25;2.60;;;13.00;99.90;;;;;;4084125;29;20190;-92
2022/11/16 02:18:21;;;;;;;10.10;2.22;;;12.90;99.90;;;;;;4084291;29;20230;-95
2022/11/16 02:21:05;;;;;;;9.25;2.33;;;12.90;99.90;;;;;;4083990;29;20672;-94
2022/11/16 02:23:29;;;;;;;7.50;1.98;;;12.90;99.90;;;;;;4068729;29;20310;-94
2022/11/16 02:25:48;;;;;;;9.32;2.38;;;12.90;99.90;;;;;;4087172;28;20259;-93
2022/11/16 02:28:30;;;;;;;8.55;2.30;;;12.80;99.90;;;;;;4102636;28;20182;-92
2022/11/16 02:30:31;;;;;;;8.05;2.45;;;12.80;99.90;;;;;;4102606;28;20222;-93
2022/11/16 02:32:46;;;;;;;8.07;2.28;;;12.80;99.90;;;;;;4086801;29;20215;-94
2022/11/16 02:35:01;;;;;;;6.80;2.25;;;12.70;99.90;;;;;;4086989;29;20189;-92
2022/11/16 02:37:11;;;;;;;7.13;2.25;;;12.60;99.90;;;;;;4086532;29;20183;-93
2022/11/16 02:39:17;;;;;;;8.77;2.17;;;12.40;99.90;;;;;;4086554;29;20644;-94
2022/11/16 02:41:21;;;;;;;7.10;1.85;;;12.30;99.90;;;;;;4087147;29;20668;-94
2022/11/16 02:43:29;;;;;;;9.48;2.20;;;12.40;99.90;;;;;;4086834;29;20286;-94
2022/11/16 02:45:36;;;;;;;6.07;1.77;;;12.30;99.90;;;;;;4086786;29;20175;-93
2022/11/16 02:47:45;;;;;;;11.95;2.10;;;12.40;99.90;;;;;;4086897;29;20283;-93
2022/11/16 02:49:51;;;;;;;8.77;2.10;;;12.20;99.90;;;;;;4086671;29;20609;-93
2022/11/16 02:51:53;;;;;;;12.35;2.10;;;12.10;99.90;;;;;;4086447;29;20700;-95
2022/11/16 02:54:15;;;;;;;4.70;1.60;;;12.20;99.90;;;;;;4086538;29;20649;-92
2022/11/16 02:56:23;;;;;;;6.22;1.85;;;12.20;99.90;;;;;;4086395;29;20187;-95
2022/11/16 02:58:25;;;;;;;9.70;1.85;;;12.30;99.90;;;;;;4086621;29;20175;-94
2022/11/16 03:00:59;;;;;;;12.48;2.15;;;12.30;99.90;;;;;;4086514;29;20275;-94
2022/11/16 03:03:28;;;;;;;5.38;2.10;;;12.30;99.90;;;;;;4066979;29;20219;-95
2022/11/16 03:05:43;;;;;;;10.48;1.75;;;12.30;99.90;;;;;;4086725;29;20243;-94
2022/11/16 03:07:49;;;;;;;6.15;1.55;;;12.30;99.90;;;;;;4086292;29;20182;-94
2022/11/16 03:09:53;;;;;;;15.23;2.08;;;12.10;99.90;;;;;;4086147;29;20176;-96
2022/11/16 03:12:24;;;;;;;6.88;1.50;;;12.10;99.90;;;;;;4086171;29;20691;-94
2022/11/16 03:14:37;;;;;;;7.65;1.67;;;12.00;99.90;;;;;;4086215;29;20203;-94
2022/11/16 03:16:55;;;;;;;8.02;1.90;;;12.10;99.90;;;;;;4086497;29;20187;-94
2022/11/16 03:19:01;;;;;;;8.13;1.63;;;12.20;99.90;;;;;;4086321;29;20183;-92
2022/11/16 03:21:27;;;;;;;9.18;1.75;;;12.10;99.90;;;;;;4086196;29;20184;-94
2022/11/16 03:23:39;;;;;;;6.90;1.55;;;12.10;99.90;;;;;;4102719;28;20202;-93
2022/11/16 03:25:54;;;;;;;9.77;1.92;;;11.90;99.90;;;;;;4086581;29;20716;-93
2022/11/16 03:28:05;;;;;;;5.72;1.58;;;11.80;99.90;;;;;;4086482;29;20186;-93
2022/11/16 03:30:16;;;;;;;6.50;1.48;;;11.60;99.90;;;;;;4086204;29;20182;-94
2022/11/16 03:32:50;;;;;;;9.40;2.25;;;11.50;99.90;;;;;;4085827;29;20223;-93
2022/11/16 03:35:04;;;;;;;5.90;1.67;;;11.50;99.90;;;;;;4101830;28;20655;-94
2022/11/16 03:37:08;;;;;;;9.38;1.77;;;11.40;99.90;;;;;;4085848;29;20656;-95
2022/11/16 03:39:31;;;;;;;9.73;1.63;;;11.40;99.90;;;;;;4086872;29;20214;-94
2022/11/16 03:41:41;;;;;;;8.10;1.70;;;11.40;99.90;;;;;;4102054;28;20244;-95
2022/11/16 03:43:49;;;;;;;9.57;2.35;;;11.30;99.90;;;;;;4086430;29;20203;-92
2022/11/16 03:45:53;;;;;;;9.50;1.80;;;11.30;99.90;;;;;;4086455;29;20231;-94
2022/11/16 03:48:02;;;;;;;8.25;2.00;;;11.30;99.90;;;;;;4086168;29;20643;-94
2022/11/16 03:50:17;;;;;;;9.35;2.10;;;11.40;99.90;;;;;;4086275;29;20171;-93
2022/11/16 03:52:53;;;;;;;11.73;2.28;;;11.40;99.90;;;;;;4085741;29;20697;-95
2022/11/16 03:55:04;;;;;;;5.43;2.08;;;11.30;99.90;;;;;;4085978;29;20176;-95
2022/11/16 03:57:41;;;;;;;7.05;2.13;;;11.20;99.90;;;;;;4086089;29;20573;-94
2022/11/16 04:00:30;;;;;;;6.90;1.98;;;11.10;99.90;;;;;;4097584;28;20191;-94
2022/11/16 04:02:55;;;;;;;11.38;2.38;;;11.10;99.90;;;;;;4085223;29;20179;-95
2022/11/16 04:25:02;;;;;;;9.70;2.97;;;10.90;99.90;;;;;;4037727;29;20181;-94
2022/11/16 04:29:44;;;;;;;13.35;2.53;;;10.80;99.90;;;;;;4054423;29;20221;-94
2022/11/16 04:39:46;;;;;;;12.32;1.90;;;10.70;99.90;;;;;;4087339;29;20748;-92
2022/11/16 04:42:34;;;;;;;11.68;2.10;;;10.60;99.90;;;;;;4089151;28;20234;-95
2022/11/16 04:47:19;;;;;;;9.80;1.98;;;10.50;99.90;;;;;;4086325;29;20227;-94
2022/11/16 04:49:21;;;;;;;10.43;1.83;;;10.50;99.90;;;;;;4102345;28;20185;-94
2022/11/16 04:51:22;;;;;;;16.52;2.13;;;10.30;99.90;;;;;;4086830;29;20215;-92
2022/11/16 04:53:25;;;;;;;19.30;2.38;;;10.20;99.90;;;;;;4087164;29;20219;-93
2022/11/16 04:56:05;;;;;;;14.07;1.65;;;10.30;99.90;;;;;;4086423;28;20184;-92
2022/11/16 04:58:10;;;;;;;14.88;1.80;;;10.30;99.90;;;;;;4085987;29;20183;-93
2022/11/16 05:00:22;;;;;;;15.20;2.03;;;10.20;99.90;;;;;;4086814;29;20282;-95
2022/11/16 05:02:31;;;;;;;13.15;1.75;;;10.30;99.90;;;;;;4086207;29;20187;-94
2022/11/16 05:04:43;;;;;;;9.97;1.77;;;10.40;99.90;;;;;;4087166;29;20184;-94
2022/11/16 05:07:24;;;;;;;10.70;1.92;;;10.30;99.90;;;;;;4086480;29;20274;-92
2022/11/16 05:09:56;;;;;;;13.98;1.88;;;10.20;99.90;;;;;;4099888;28;20206;-96
2022/11/16 05:12:01;;;;;;;7.65;1.73;;;10.10;99.90;;;;;;4084179;29;20294;-93
2022/11/16 05:14:05;;;;;;;14.48;2.30;;;10.10;99.90;;;;;;4084842;29;20196;-94
2022/11/16 05:16:09;;;;;;;24.38;2.40;;;10.10;99.90;;;;;;4084388;29;20184;-95
2022/11/16 05:18:22;;;;;;;13.57;2.10;;;10.10;99.90;;;;;;4084809;29;20262;-93
2022/11/16 05:25:57;;;;;;;11.60;1.52;;;10.10;99.90;;;;;;4084250;29;20186;-94
2022/11/16 05:28:18;;;;;;;11.52;1.70;;;10.10;99.90;;;;;;4084591;29;20628;-93
2022/11/16 05:30:33;;;;;;;14.55;2.17;;;10.10;99.90;;;;;;4084779;29;20171;-94
2022/11/16 05:32:42;;;;;;;9.88;1.65;;;10.10;99.90;;;;;;4083769;29;20211;-92
2022/11/16 05:34:47;;;;;;;8.90;1.40;;;10.00;99.90;;;;;;4084171;29;20163;-92
2022/11/16 05:37:13;;;;;;;;;;;;;;;;;;;;;
2022/11/16 05:39:43;;;;;;;12.52;1.90;;;9.90;99.90;;;;;;4084343;29;20167;-94
2022/11/16 05:41:58;;;;;;;9.85;1.52;;;10.10;99.90;;;;;;4098564;28;20729;-94
2022/11/16 05:44:29;;;;;;;14.52;1.80;;;9.90;99.90;;;;;;4069559;29;20282;-94
2022/11/16 05:46:44;;;;;;;;;;;;;;;;;;;;;
2022/11/16 05:48:54;;;;;;;11.20;2.00;;;9.80;99.90;;;;;;4084188;29;20214;-95
2022/11/16 05:51:01;;;;;;;16.15;1.95;;;9.80;99.90;;;;;;4100564;28;20644;-94
2022/11/16 05:53:09;;;;;;;14.30;1.80;;;9.70;99.90;;;;;;4083957;29;20230;-93
2022/11/16 05:55:11;;;;;;;12.73;2.40;;;9.60;99.90;;;;;;4100035;28;20181;-92
2022/11/16 05:57:20;;;;;;;13.33;1.60;;;9.60;99.90;;;;;;4088079;28;20178;-93
2022/11/16 05:59:24;;;;;;;14.70;2.00;;;9.80;99.90;;;;;;4072743;29;20181;-93
2022/11/16 06:01:31;;;;;;;10.60;2.30;;;9.70;99.90;;;;;;4088139;29;20242;-93
2022/11/16 06:03:41;;;;;;;16.17;2.15;;;9.70;99.90;;;;;;4087756;29;20210;-93
2022/11/16 06:05:57;;;;;;;;;;;;;;;;;;;;;
2022/11/16 06:08:03;;;;;;;12.80;2.63;;;9.50;99.90;;;;;;4087727;29;20266;-92
2022/11/16 06:10:13;;;;;;;23.02;2.80;;;9.60;99.90;;;;;;4087705;29;20184;-93
2022/11/16 06:12:25;;;;;;;13.43;2.15;;;9.60;99.90;;;;;;4088824;29;20218;-94
2022/11/16 06:14:25;;;;;;;17.80;1.80;;;9.60;99.90;;;;;;4103126;28;20209;-94
2022/11/16 06:16:33;;;;;;;12.47;2.17;;;9.60;99.90;;;;;;4087309;29;20274;-94
2022/11/16 06:18:38;;;;;;;18.17;2.37;;;9.80;99.90;;;;;;4087184;29;20172;-93
2022/11/16 06:20:39;;;;;;;16.00;2.70;;;9.80;99.90;;;;;;4087646;29;20172;-94
2022/11/16 06:22:44;;;;;;;26.50;3.60;;;9.70;99.90;;;;;;4103247;28;20167;-94
2022/11/16 06:25:11;;;;;;;21.13;2.53;;;9.70;99.90;;;;;;4071834;29;20176;-93
2022/11/16 06:27:16;;;;;;;17.50;2.25;;;9.70;99.90;;;;;;4100955;28;20347;-91
2022/11/16 06:29:22;;;;;;;21.50;2.33;;;9.70;99.90;;;;;;4087514;29;20172;-94
2022/11/16 07:09:55;;;;;;;16.85;2.47;;;9.50;99.90;;;;;;4104614;28;20563;-95
2022/11/16 10:07:19;;;;;;;14.55;3.08;;;12.20;99.90;;;;;;4500158;23;20227;-96
2022/11/16 10:51:08;;;;;;;8.52;1.50;;;13.80;99.90;;;;;;4973663;23;20187;-96
2022/11/16 11:06:27;;;;;;;11.73;1.30;;;13.70;99.90;;;;;;4163359;23;20230;-96
2022/11/16 11:20:32;;;;;;;8.20;1.50;;;13.30;99.90;;;;;;4609252;23;20249;-95
2022/11/16 16:39:33;;;;;;;11.63;1.77;;;12.40;99.90;;;;;;4116688;28;20217;-94
2022/11/16 16:42:27;;;;;;;9.68;1.52;;;12.40;99.90;;;;;;4100316;28;20218;-94
2022/11/16 16:45:42;;;;;;;12.05;1.50;;;12.50;99.90;;;;;;4114764;28;20198;-95
2022/11/16 16:47:38;;;;;;;10.27;1.45;;;12.50;99.90;;;;;;4113427;28;20186;-92
2022/11/16 16:50:21;;;;;;;6.03;1.48;;;12.50;99.90;;;;;;4086202;29;20182;-95
2022/11/16 16:53:06;;;;;;;;;;;;;;;;;;;;;
2022/11/16 16:55:48;;;;;;;13.65;2.17;;;12.60;99.90;;;;;;4101650;28;20221;-95
2022/11/16 16:58:12;;;;;;;7.43;1.67;;;12.60;99.90;;;;;;4104141;23;20207;-95
2022/11/16 17:00:49;;;;;;;8.05;1.60;;;12.50;99.90;;;;;;4116965;28;20194;-95
2022/11/16 17:03:01;;;;;;;11.23;1.90;;;12.50;99.90;;;;;;4130684;28;20240;-95
2022/11/16 17:47:42;;;;;;;12.48;2.45;;;12.90;99.90;;;;;;4313856;23;20728;-96
2022/11/16 18:06:59;;;;;;;;;;;;;;;;;;;;;
2022/11/16 18:10:09;;;;;;;13.20;2.83;;;12.50;99.90;;;;;;4081911;29;20234;-94
2022/11/16 19:37:59;;;;;;;16.42;2.97;;;12.60;99.90;;;;;;4116629;28;20212;-93
2022/11/16 19:40:12;;;;;;;11.68;2.55;;;12.30;99.90;;;;;;4134143;28;20180;-93
2022/11/16 19:42:28;;;;;;;10.55;2.53;;;12.40;99.90;;;;;;4119741;28;20204;-94
2022/11/16 19:44:29;;;;;;;14.88;2.75;;;12.10;99.90;;;;;;4103091;28;20203;-94
2022/11/16 19:46:35;;;;;;;10.13;2.67;;;12.10;99.90;;;;;;4118463;28;20170;-93
2022/11/16 19:48:37;;;;;;;13.18;2.63;;;12.10;99.90;;;;;;4102279;28;20230;-93
2022/11/16 19:50:55;;;;;;;11.55;2.63;;;12.00;99.90;;;;;;4102470;28;20175;-93
2022/11/16 19:52:58;;;;;;;10.13;2.50;;;12.20;99.90;;;;;;4101306;28;20262;-93
2022/11/16 19:54:59;;;;;;;15.25;2.83;;;12.30;99.90;;;;;;4101934;28;20211;-95
2022/11/16 19:59:57;;;;;;;12.85;2.50;;;12.00;99.90;;;;;;4054344;29;20234;-93
2022/11/16 20:02:00;;;;;;;14.23;2.40;;;12.20;99.90;;;;;;4053520;29;20181;-94
2022/11/16 20:04:02;;;;;;;14.25;2.80;;;12.00;99.90;;;;;;4068902;28;20229;-95
2022/11/16 20:06:05;;;;;;;13.13;3.22;;;11.80;99.90;;;;;;4117488;28;20167;-92
2022/11/16 20:08:12;;;;;;;10.88;2.78;;;11.70;99.90;;;;;;4101798;28;20187;-94
2022/11/16 20:10:15;;;;;;;11.05;2.70;;;11.50;99.90;;;;;;4101321;28;20202;-94
2022/11/16 20:12:19;;;;;;;8.68;2.28;;;11.40;99.90;;;;;;4101184;28;20194;-92
2022/11/16 20:14:22;;;;;;;14.52;2.50;;;11.20;99.90;;;;;;4100755;28;20194;-94
2022/11/16 20:16:29;;;;;;;11.48;2.42;;;11.00;99.90;;;;;;4100637;28;20175;-92
2022/11/16 20:18:41;;;;;;;8.77;2.35;;;10.90;99.90;;;;;;4117191;28;20178;-92
2022/11/16 20:20:51;;;;;;;11.60;2.65;;;10.80;99.90;;;;;;4117108;28;20197;-92
2022/11/16 20:22:54;;;;;;;12.15;2.45;;;10.90;99.90;;;;;;4117626;28;20218;-93
2022/11/16 20:25:31;;;;;;;;;;;;;;;;;;;;;
2022/11/16 20:27:40;;;;;;;11.98;2.22;;;11.00;99.90;;;;;;4070945;29;20192;-94
2022/11/16 20:30:07;;;;;;;15.30;2.80;;;11.00;99.90;;;;;;4085989;29;20179;-94
2022/11/16 20:39:55;;;;;;;;;;;;;;;;;;;;;
2022/11/16 20:49:50;;;;;;;16.58;2.42;;;10.70;99.90;;;;;;4006442;29;20195;-94
2022/11/16 20:52:16;;;;;;;15.57;2.20;;;10.70;99.90;;;;;;4010362;29;20182;-93
2022/11/16 20:54:27;;;;;;;14.75;2.45;;;10.70;99.90;;;;;;3934533;30;20210;-93
2022/11/16 20:56:54;;;;;;;6.07;2.08;;;10.70;99.90;;;;;;3998869;29;20199;-93
2022/11/16 20:59:00;;;;;;;9.35;2.05;;;10.80;99.90;;;;;;4019794;29;20193;-94
2022/11/16 21:01:50;;;;;;;;;;;;;;;;;;;;;
2022/11/16 21:04:07;;;;;;;5.88;1.50;;;10.70;99.90;;;;;;4023309;29;20332;-95
2022/11/16 21:06:21;;;;;;;13.90;1.73;;;10.70;99.90;;;;;;4037725;29;20187;-95
2022/11/16 21:09:24;;;;;;;;;;;;;;;;;;;;;
2022/11/16 21:16:45;;;;;;;5.25;1.42;;;10.70;99.90;;;;;;4114657;28;20185;-91
2022/11/16 21:19:15;;;;;;;9.70;1.70;;;10.70;99.90;;;;;;4117861;28;20745;-96
2022/11/16 21:21:40;;;;;;;6.03;1.60;;;10.80;99.90;;;;;;4118096;28;20189;-94
2022/11/16 21:33:13;;;;;;;4.55;0.90;;;11.00;99.90;;;;;;4109100;29;20269;-93
2022/11/16 21:36:26;;;;;;;4.72;1.38;;;10.90;99.90;;;;;;4065016;29;20206;-96
2022/11/16 22:15:09;;;;;;;3.38;0.90;;;11.40;99.90;;;;;;4692377;23;20232;-95
2022/11/16 22:25:01;;;;;;;3.42;0.82;;;11.50;99.90;;;;;;4920521;23;20440;-96
2022/11/16 22:34:36;;;;;;;3.83;1.15;;;11.70;99.90;;;;;;4765619;23;20225;-96
